createdAt,value
2017-12-05T00:04:05.777Z,42.43
2017-12-05T00:09:07.341Z,42.20
2017-12-05T00:14:08.842Z,38.20
2017-12-05T00:19:11.108Z,38.53
2017-12-05T00:24:12.633Z,44.37
2017-12-05T00:29:14.133Z,41.53
2017-12-05T00:34:15.585Z,49.53
2017-12-05T00:39:17.093Z,41.80
2017-12-05T00:44:19.381Z,39.47
2017-12-05T00:49:21.645Z,45.73
2017-12-05T00:54:23.198Z,46.77
2017-12-05T00:59:24.696Z,38.80
2017-12-05T01:04:26.924Z,40.30
2017-12-05T01:09:28.424Z,38.80
2017-12-05T01:14:29.946Z,44.97
2017-12-05T01:19:31.477Z,40.43
2017-12-05T01:24:33.742Z,40.93
2017-12-05T01:29:35.293Z,36.33
2017-12-05T01:34:36.805Z,46.13
2017-12-05T01:39:39.086Z,40.70
2017-12-05T01:44:41.329Z,43.60
2017-12-05T01:49:42.873Z,46.27
2017-12-05T01:54:44.416Z,41.30
2017-12-05T01:59:45.934Z,46.40
2017-12-05T02:04:47.440Z,46.10
2017-12-05T02:09:49.698Z,37.83
2017-12-05T02:14:51.259Z,41.37
2017-12-05T02:19:52.801Z,42.33
2017-12-05T02:24:54.333Z,38.60
2017-12-05T02:29:56.597Z,42.47
2017-12-05T02:34:58.156Z,41.40
2017-12-05T02:39:59.740Z,54.27
2017-12-05T02:45:01.277Z,51.10
2017-12-05T02:50:02.791Z,43.17
2017-12-05T02:55:05.040Z,45.40
2017-12-05T03:00:06.580Z,46.63
2017-12-05T03:05:08.130Z,48.00
2017-12-05T03:10:09.661Z,46.07
2017-12-05T03:15:11.224Z,48.40
2017-12-05T03:20:12.738Z,42.80
2017-12-05T03:25:14.266Z,41.63
2017-12-05T03:30:15.835Z,50.07
2017-12-05T03:35:26.186Z,49.87
2017-12-05T03:40:27.721Z,47.80
2017-12-05T03:45:29.465Z,51.27
2017-12-05T03:50:30.997Z,56.20
2017-12-05T03:55:32.516Z,49.53
2017-12-05T04:00:34.069Z,43.53
2017-12-05T04:05:36.340Z,48.10
2017-12-05T04:10:38.617Z,38.07
2017-12-05T04:15:40.159Z,47.00
2017-12-05T04:20:41.705Z,41.37
2017-12-05T04:25:43.253Z,44.93
2017-12-05T04:30:44.908Z,58.00
2017-12-05T04:35:47.195Z,45.90
2017-12-05T04:40:48.700Z,55.93
2017-12-05T04:45:50.264Z,54.07
2017-12-05T04:50:51.788Z,39.87
2017-12-05T04:55:54.049Z,51.80
2017-12-05T05:00:55.565Z,46.80
2017-12-05T05:05:57.095Z,53.00
2017-12-05T05:10:58.641Z,45.67
2017-12-05T05:16:00.173Z,52.43
2017-12-05T05:21:01.666Z,51.40
2017-12-05T05:26:03.201Z,47.00
2017-12-05T05:31:04.708Z,47.17
2017-12-05T05:36:06.252Z,49.97
2017-12-05T05:41:07.792Z,43.80
2017-12-05T05:46:09.333Z,47.20
2017-12-05T05:51:10.869Z,48.90
2017-12-05T05:56:12.406Z,54.50
2017-12-05T06:01:13.900Z,46.07
2017-12-05T06:06:15.467Z,43.27
2017-12-05T06:11:17.076Z,52.17
2017-12-05T06:16:19.399Z,41.63
2017-12-05T06:21:20.975Z,44.07
2017-12-05T06:26:22.517Z,44.97
2017-12-05T06:31:24.079Z,40.20
2017-12-05T06:36:26.354Z,36.77
2017-12-05T06:41:28.613Z,39.97
2017-12-05T06:46:30.115Z,43.70
2017-12-05T06:51:32.369Z,40.33
2017-12-05T06:56:33.911Z,38.60
2017-12-05T07:01:35.409Z,36.27
2017-12-05T07:06:36.919Z,34.80
2017-12-05T07:11:38.413Z,46.73
2017-12-05T07:16:39.918Z,42.53
2017-12-05T07:21:42.192Z,36.17
2017-12-05T07:26:44.504Z,37.37
2017-12-05T07:31:47.010Z,35.47
2017-12-05T07:36:48.528Z,40.30
2017-12-05T07:41:50.132Z,31.53
2017-12-05T07:46:51.650Z,32.13
2017-12-05T07:51:53.165Z,30.03
2017-12-05T07:56:55.392Z,30.00
2017-12-05T08:01:56.895Z,30.43
2017-12-05T08:06:58.405Z,25.90
2017-12-05T08:12:00.056Z,23.70
2017-12-05T08:17:01.547Z,28.00
2017-12-05T08:22:03.079Z,25.03
2017-12-05T08:27:05.350Z,28.70
2017-12-05T08:32:06.860Z,28.17
2017-12-05T08:37:08.411Z,25.80
2017-12-05T08:42:09.886Z,26.23
2017-12-05T08:47:11.433Z,20.80
2017-12-05T08:52:13.670Z,19.07
2017-12-05T08:57:15.400Z,23.30
2017-12-05T09:02:16.897Z,20.57
2017-12-05T09:07:25.329Z,25.93
2017-12-05T09:12:26.857Z,25.07
2017-12-05T09:17:28.351Z,24.57
2017-12-05T09:22:30.045Z,28.57
2017-12-05T09:27:31.594Z,24.63
2017-12-05T09:32:33.147Z,24.60
2017-12-05T09:37:34.649Z,22.30
2017-12-05T09:42:36.145Z,19.20
2017-12-05T09:47:37.717Z,24.60
2017-12-05T09:52:39.981Z,19.80
2017-12-05T09:57:41.494Z,20.83
2017-12-05T10:02:43.010Z,25.10
2017-12-05T10:07:44.626Z,24.77
2017-12-05T10:12:46.112Z,23.93
2017-12-05T10:17:47.592Z,29.97
2017-12-05T10:22:49.076Z,21.20
2017-12-05T10:27:50.716Z,28.90
2017-12-05T10:32:52.252Z,18.53
2017-12-05T10:37:54.513Z,29.00
2017-12-05T10:42:56.064Z,20.40
2017-12-05T10:47:57.586Z,21.17
2017-12-05T10:52:59.087Z,17.87
2017-12-05T10:58:00.617Z,17.60
2017-12-05T11:03:02.177Z,24.80
2017-12-05T11:08:03.672Z,28.53
2017-12-05T11:13:05.253Z,23.87
2017-12-05T11:18:06.764Z,24.40
2017-12-05T11:23:09.003Z,21.80
2017-12-05T11:28:10.524Z,22.93
2017-12-05T11:33:12.886Z,20.53
2017-12-05T11:38:14.428Z,23.10
2017-12-05T11:43:15.942Z,19.43
2017-12-05T11:48:18.197Z,22.77
2017-12-05T11:53:19.741Z,19.77
2017-12-05T11:58:21.248Z,20.63
2017-12-05T12:03:22.777Z,23.97
2017-12-05T12:08:24.562Z,16.40
2017-12-05T12:13:26.089Z,14.70
2017-12-05T12:18:27.600Z,19.17
2017-12-05T12:23:29.129Z,18.13
2017-12-05T12:28:30.650Z,17.33
2017-12-05T12:33:32.247Z,17.53
2017-12-05T12:38:33.801Z,22.63
2017-12-05T12:43:36.071Z,15.30
2017-12-05T12:48:37.602Z,22.47
2017-12-05T12:53:39.710Z,26.07
2017-12-05T12:58:41.278Z,23.13
2017-12-05T13:03:42.784Z,29.23
2017-12-05T13:08:44.299Z,29.10
2017-12-05T13:13:45.832Z,24.67
2017-12-05T13:18:47.350Z,20.30
2017-12-05T13:23:48.884Z,20.63
2017-12-05T13:28:50.446Z,24.23
2017-12-05T13:33:52.029Z,19.70
2017-12-05T13:38:53.569Z,13.90
2017-12-05T13:43:55.215Z,15.23
2017-12-05T13:48:57.458Z,18.33
2017-12-05T13:53:58.993Z,20.57
2017-12-05T13:59:00.660Z,20.60
2017-12-05T14:04:02.202Z,27.23
2017-12-05T14:09:04.465Z,24.70
2017-12-05T14:14:06.001Z,20.70
2017-12-05T14:19:07.514Z,23.17
2017-12-05T14:24:09.812Z,24.13
2017-12-05T14:29:12.118Z,29.33
2017-12-05T14:34:13.718Z,24.30
2017-12-05T14:39:15.214Z,27.90
2017-12-05T14:44:16.678Z,36.73
2017-12-05T14:49:18.103Z,22.70
2017-12-05T14:54:19.534Z,30.27
2017-12-05T14:59:20.974Z,21.10
2017-12-05T15:04:22.432Z,23.20
2017-12-05T15:09:23.927Z,23.53
2017-12-05T15:14:25.373Z,22.23
2017-12-05T15:19:27.005Z,24.73
2017-12-05T15:24:28.463Z,29.50
2017-12-05T15:29:29.974Z,23.87
2017-12-05T15:34:31.501Z,36.07
2017-12-05T15:39:33.042Z,26.83
2017-12-05T15:44:34.621Z,26.00
2017-12-05T15:49:36.152Z,34.77
2017-12-05T15:54:38.423Z,30.83
2017-12-05T15:59:39.970Z,31.40
2017-12-05T16:04:42.379Z,36.33
2017-12-05T16:09:44.077Z,28.10
2017-12-05T16:14:46.385Z,35.07
2017-12-05T16:19:47.904Z,29.27
2017-12-05T16:24:49.466Z,27.93
2017-12-05T16:29:51.013Z,30.60
2017-12-05T16:34:52.575Z,29.53
2017-12-05T16:39:54.285Z,32.67
2017-12-05T16:44:55.841Z,37.47
2017-12-05T16:49:58.193Z,30.47
2017-12-05T16:54:59.876Z,38.17
2017-12-05T17:00:01.397Z,38.40
2017-12-05T17:05:02.936Z,37.57
2017-12-05T17:10:04.483Z,30.70
2017-12-05T17:15:05.981Z,34.50
2017-12-05T17:20:08.265Z,37.10
2017-12-05T17:25:10.469Z,36.37
2017-12-05T17:30:11.972Z,43.43
2017-12-05T17:35:13.495Z,37.70
2017-12-05T17:40:14.958Z,34.20
2017-12-05T17:45:17.279Z,34.83
2017-12-05T17:50:18.749Z,27.73
2017-12-05T17:55:20.220Z,35.73
2017-12-05T18:00:21.768Z,28.30
2017-12-05T18:05:23.278Z,34.40
2017-12-05T18:10:24.787Z,32.07
2017-12-05T18:15:26.241Z,37.53
2017-12-05T18:20:28.414Z,38.70
2017-12-05T18:25:30.704Z,37.67
2017-12-05T18:30:32.937Z,35.63
2017-12-05T18:35:34.718Z,41.93
2017-12-05T18:40:36.424Z,39.37
2017-12-05T18:45:38.202Z,40.77
2017-12-05T18:50:39.785Z,32.00
2017-12-05T18:55:42.027Z,39.70
2017-12-05T19:00:43.553Z,34.83
2017-12-05T19:05:45.063Z,34.27
2017-12-05T19:10:46.685Z,30.13
2017-12-05T19:15:48.285Z,35.03
2017-12-05T19:20:49.915Z,36.37
2017-12-05T19:25:51.493Z,37.30
2017-12-05T19:30:53.177Z,34.13
2017-12-05T19:35:54.757Z,36.80
2017-12-05T19:40:56.284Z,38.27
2017-12-05T19:45:58.047Z,33.90
2017-12-05T19:50:59.864Z,38.73
2017-12-05T19:56:01.428Z,35.23
2017-12-05T20:01:02.991Z,41.17
2017-12-05T20:06:04.566Z,28.47
2017-12-05T20:11:06.367Z,33.07
2017-12-05T20:16:08.001Z,37.80
2017-12-05T20:21:09.541Z,30.57
2017-12-05T20:26:11.899Z,45.37
2017-12-05T20:31:13.623Z,33.67
2017-12-05T20:36:15.244Z,36.67
2017-12-05T20:41:17.624Z,30.17
2017-12-05T20:46:19.435Z,35.00
2017-12-05T20:51:20.932Z,37.97
2017-12-05T20:56:22.470Z,45.43
2017-12-05T21:01:24.042Z,41.47
2017-12-05T21:06:25.713Z,38.37
2017-12-05T21:11:27.351Z,34.63
2017-12-05T21:16:29.656Z,35.77
2017-12-05T21:21:32.075Z,39.03
2017-12-05T21:26:33.610Z,39.50
2017-12-05T21:31:35.978Z,33.67
2017-12-05T21:36:37.580Z,42.57
2017-12-05T21:41:39.235Z,47.27
2017-12-05T21:46:40.830Z,45.57
2017-12-05T21:51:42.346Z,37.60
2017-12-05T21:56:43.896Z,35.30
2017-12-05T22:01:45.440Z,39.50
2017-12-05T22:06:47.024Z,48.10
2017-12-05T22:11:48.638Z,43.20
2017-12-05T22:16:50.961Z,41.60
2017-12-05T22:21:52.500Z,33.83
2017-12-05T22:26:54.770Z,41.33
2017-12-05T22:31:57.087Z,42.77
2017-12-05T22:36:58.670Z,44.83
2017-12-05T22:42:00.222Z,41.60
2017-12-05T22:47:01.770Z,38.13
2017-12-05T22:52:04.049Z,42.90
2017-12-05T22:57:06.358Z,34.83
2017-12-05T23:02:07.861Z,38.97
2017-12-05T23:07:09.377Z,44.83
2017-12-05T23:12:11.678Z,37.43
2017-12-05T23:17:13.166Z,40.60
2017-12-05T23:22:14.685Z,41.53
2017-12-05T23:27:16.945Z,43.23
2017-12-05T23:32:18.454Z,37.57
2017-12-05T23:37:20.707Z,48.00
2017-12-05T23:42:22.222Z,36.03
2017-12-05T23:47:23.754Z,36.87
2017-12-05T23:52:25.249Z,42.50
2017-12-05T23:57:26.756Z,39.00
